createdAt,value
2017-11-20T00:00:50.960Z,13.80
2017-11-20T00:01:50.944Z,13.70
2017-11-20T00:02:50.924Z,13.80
2017-11-20T00:03:50.916Z,12.90
2017-11-20T00:04:50.893Z,13.30
2017-11-20T00:05:50.884Z,12.60
2017-11-20T00:06:50.856Z,13.30
2017-11-20T00:07:50.845Z,13.60
2017-11-20T00:08:50.828Z,12.10
2017-11-20T00:09:50.812Z,13.70
2017-11-20T00:10:50.794Z,13.10
2017-11-20T00:11:50.778Z,12.50
2017-11-20T00:12:50.755Z,11.80
2017-11-20T00:13:50.734Z,12.70
2017-11-20T00:14:50.718Z,13.30
2017-11-20T00:15:50.707Z,12.40
2017-11-20T00:16:50.685Z,12.20
2017-11-20T00:17:50.674Z,12.00
2017-11-20T00:18:50.657Z,12.40
2017-11-20T00:19:50.637Z,12.50
2017-11-20T00:20:50.617Z,12.80
2017-11-20T00:21:50.599Z,12.70
2017-11-20T00:22:50.585Z,12.50
2017-11-20T00:23:50.566Z,12.60
2017-11-20T00:24:50.557Z,11.70
2017-11-20T00:25:50.536Z,11.70
2017-11-20T00:26:50.515Z,12.80
2017-11-20T00:27:50.501Z,12.10
2017-11-20T00:28:50.484Z,11.20
2017-11-20T00:29:50.462Z,12.50
2017-11-20T00:30:50.448Z,12.80
2017-11-20T00:31:50.434Z,12.70
2017-11-20T00:32:50.415Z,13.10
2017-11-20T00:33:50.392Z,13.10
2017-11-20T00:34:50.387Z,12.80
2017-11-20T00:35:50.363Z,12.70
2017-11-20T00:36:50.348Z,13.30
2017-11-20T00:37:50.334Z,13.40
2017-11-20T00:38:50.314Z,13.10
2017-11-20T00:39:50.288Z,12.20
2017-11-20T00:40:50.274Z,12.60
2017-11-20T00:41:50.255Z,12.80
2017-11-20T00:42:50.242Z,12.30
2017-11-20T00:43:50.229Z,13.00
2017-11-20T00:44:50.210Z,49.50
2017-11-20T00:45:50.203Z,14.50
2017-11-20T00:46:50.185Z,13.50
2017-11-20T00:47:50.150Z,13.50
2017-11-20T00:48:50.135Z,14.50
2017-11-20T00:49:50.120Z,12.90
2017-11-20T00:50:50.098Z,13.40
2017-11-20T00:51:50.081Z,13.30
2017-11-20T00:52:50.064Z,13.20
2017-11-20T00:53:50.055Z,13.10
2017-11-20T00:54:50.031Z,13.00
2017-11-20T00:55:50.013Z,13.90
2017-11-20T00:56:50.000Z,14.30
2017-11-20T00:57:49.978Z,14.00
2017-11-20T00:58:49.963Z,12.40
2017-11-20T00:59:49.950Z,12.00
2017-11-20T01:00:49.926Z,12.20
2017-11-20T01:01:49.921Z,13.30
2017-11-20T01:02:49.892Z,12.80
2017-11-20T01:03:49.876Z,12.60
2017-11-20T01:04:49.862Z,12.60
2017-11-20T01:05:49.848Z,13.40
2017-11-20T01:06:49.823Z,13.50
2017-11-20T01:07:49.812Z,13.50
2017-11-20T01:08:49.797Z,13.40
2017-11-20T01:09:49.775Z,12.30
2017-11-20T01:10:49.758Z,13.40
2017-11-20T01:11:49.752Z,12.50
2017-11-20T01:12:49.723Z,12.60
2017-11-20T01:13:49.712Z,13.60
2017-11-20T01:14:49.693Z,12.50
2017-11-20T01:15:49.673Z,13.00
2017-11-20T01:16:49.667Z,13.30
2017-11-20T01:17:49.643Z,14.10
2017-11-20T01:18:49.636Z,12.80
2017-11-20T01:19:49.604Z,12.40
2017-11-20T01:20:49.586Z,12.30
2017-11-20T01:21:49.565Z,13.20
2017-11-20T01:22:49.552Z,12.90
2017-11-20T01:23:49.536Z,13.00
2017-11-20T01:24:49.516Z,13.70
2017-11-20T01:25:49.497Z,12.40
2017-11-20T01:26:49.480Z,13.80
2017-11-20T01:27:49.477Z,14.80
2017-11-20T01:28:49.455Z,14.20
2017-11-20T01:29:49.435Z,14.10
2017-11-20T01:30:49.418Z,13.70
2017-11-20T01:31:49.393Z,12.70
2017-11-20T01:32:49.378Z,13.90
2017-11-20T01:33:49.366Z,13.20
2017-11-20T01:34:49.341Z,13.80
2017-11-20T01:35:49.326Z,13.30
2017-11-20T01:36:49.308Z,13.70
2017-11-20T01:37:49.294Z,12.60
2017-11-20T01:38:49.279Z,14.10
2017-11-20T01:39:49.261Z,12.90
2017-11-20T01:40:49.238Z,12.90
2017-11-20T01:41:49.227Z,11.80
2017-11-20T01:42:49.214Z,12.50
2017-11-20T01:43:49.188Z,12.60
2017-11-20T01:44:49.176Z,13.80
2017-11-20T01:45:49.154Z,13.80
2017-11-20T01:46:49.143Z,14.40
2017-11-20T01:47:49.147Z,13.40
2017-11-20T01:48:49.102Z,13.20
2017-11-20T01:49:49.099Z,12.80
2017-11-20T01:50:49.064Z,13.20
2017-11-20T01:51:49.064Z,13.10
2017-11-20T01:52:49.044Z,12.80
2017-11-20T01:53:49.022Z,12.00
2017-11-20T01:54:49.005Z,11.80
2017-11-20T01:55:48.989Z,12.30
2017-11-20T01:56:48.961Z,12.30
2017-11-20T01:57:48.943Z,11.80
2017-11-20T01:58:48.935Z,11.30
2017-11-20T01:59:48.908Z,11.90
2017-11-20T02:00:48.900Z,11.60
2017-11-20T02:01:48.877Z,11.90
2017-11-20T02:02:48.861Z,12.30
2017-11-20T02:03:48.839Z,11.40
2017-11-20T02:04:48.825Z,12.80
2017-11-20T02:05:48.810Z,14.80
2017-11-20T02:06:48.794Z,16.90
2017-11-20T02:07:48.782Z,18.10
2017-11-20T02:08:48.751Z,16.60
2017-11-20T02:09:48.734Z,14.30
2017-11-20T02:10:48.723Z,14.20
2017-11-20T02:11:48.711Z,14.90
2017-11-20T02:12:48.695Z,13.50
2017-11-20T02:13:48.669Z,13.70
2017-11-20T02:14:48.653Z,13.10
2017-11-20T02:15:48.626Z,13.90
2017-11-20T02:16:48.611Z,13.90
2017-11-20T02:17:48.591Z,13.10
2017-11-20T02:18:48.588Z,13.60
2017-11-20T02:19:48.558Z,13.40
2017-11-20T02:20:48.538Z,14.20
2017-11-20T02:21:48.525Z,13.10
2017-11-20T02:22:48.503Z,12.40
2017-11-20T02:23:48.494Z,12.90
2017-11-20T02:24:48.480Z,13.50
2017-11-20T02:25:48.457Z,13.60
2017-11-20T02:26:48.438Z,14.00
2017-11-20T02:27:48.421Z,13.40
2017-11-20T02:28:48.408Z,11.90
2017-11-20T02:29:48.402Z,12.80
2017-11-20T02:30:48.362Z,13.70
2017-11-20T02:31:48.346Z,13.20
2017-11-20T02:32:48.328Z,13.10
2017-11-20T02:33:48.317Z,13.10
2017-11-20T02:34:48.295Z,14.60
2017-11-20T02:35:48.282Z,13.70
2017-11-20T02:36:48.272Z,12.90
2017-11-20T02:37:48.242Z,12.60
2017-11-20T02:38:48.222Z,12.00
2017-11-20T02:39:48.206Z,13.30
2017-11-20T02:40:48.205Z,14.70
2017-11-20T02:41:48.169Z,14.90
2017-11-20T02:42:48.151Z,15.30
2017-11-20T02:43:48.136Z,13.40
2017-11-20T02:44:48.117Z,13.90
2017-11-20T02:45:48.098Z,13.20
2017-11-20T02:46:48.081Z,14.80
2017-11-20T02:47:48.076Z,15.50
2017-11-20T02:48:48.057Z,16.30
2017-11-20T02:49:48.030Z,16.40
2017-11-20T02:50:48.022Z,15.00
2017-11-20T02:51:48.000Z,16.20
2017-11-20T02:52:47.985Z,17.00
2017-11-20T02:53:47.961Z,18.10
2017-11-20T02:54:47.943Z,18.00
2017-11-20T02:55:47.924Z,18.20
2017-11-20T02:56:47.915Z,18.70
2017-11-20T02:57:47.898Z,17.80
2017-11-20T02:58:47.871Z,17.70
2017-11-20T02:59:47.858Z,19.00
2017-11-20T03:00:47.861Z,19.50
2017-11-20T03:01:47.824Z,18.10
2017-11-20T03:02:47.803Z,18.20
2017-11-20T03:03:47.784Z,16.50
2017-11-20T03:04:47.770Z,15.40
2017-11-20T03:05:47.754Z,15.90
2017-11-20T03:06:47.740Z,14.50
2017-11-20T03:07:47.719Z,14.70
2017-11-20T03:08:47.698Z,14.20
2017-11-20T03:09:47.683Z,14.50
2017-11-20T03:10:47.671Z,16.30
2017-11-20T03:11:47.651Z,15.10
2017-11-20T03:12:47.636Z,13.90
2017-11-20T03:13:47.618Z,15.70
2017-11-20T03:14:47.592Z,16.10
2017-11-20T03:15:47.588Z,17.70
2017-11-20T03:16:47.560Z,14.70
2017-11-20T03:17:47.540Z,15.10
2017-11-20T03:18:47.523Z,15.00
2017-11-20T03:19:47.505Z,14.40
2017-11-20T03:20:47.490Z,14.10
2017-11-20T03:21:47.471Z,15.40
2017-11-20T03:22:47.462Z,16.30
2017-11-20T03:23:47.441Z,16.10
2017-11-20T03:24:47.420Z,17.40
2017-11-20T03:25:47.414Z,17.50
2017-11-20T03:26:47.389Z,19.40
2017-11-20T03:27:47.379Z,17.60
2017-11-20T03:28:47.349Z,18.50
2017-11-20T03:29:47.337Z,15.40
2017-11-20T03:30:47.317Z,15.80
2017-11-20T03:31:47.296Z,17.00
2017-11-20T03:32:47.284Z,16.30
2017-11-20T03:33:47.259Z,16.60
2017-11-20T03:34:47.253Z,23.90
2017-11-20T03:35:47.226Z,26.30
2017-11-20T03:36:47.212Z,22.90
2017-11-20T03:37:47.200Z,17.80
2017-11-20T03:38:47.187Z,19.00
2017-11-20T03:39:47.161Z,23.80
2017-11-20T03:40:47.140Z,29.20
2017-11-20T03:41:47.127Z,19.50
2017-11-20T03:42:47.105Z,23.10
2017-11-20T03:43:47.087Z,18.20
2017-11-20T03:44:47.068Z,17.70
2017-11-20T03:45:47.052Z,17.50
2017-11-20T03:46:47.045Z,17.70
2017-11-20T03:47:47.036Z,17.90
2017-11-20T03:48:47.007Z,18.10
2017-11-20T03:49:46.982Z,16.90
2017-11-20T03:50:46.966Z,16.90
2017-11-20T03:51:46.948Z,17.70
2017-11-20T03:52:46.932Z,18.50
2017-11-20T03:53:46.916Z,18.30
2017-11-20T03:54:46.902Z,17.00
2017-11-20T03:55:46.885Z,19.40
2017-11-20T03:56:46.862Z,19.70
2017-11-20T03:57:46.843Z,18.00
2017-11-20T03:58:46.845Z,16.80
2017-11-20T03:59:46.807Z,18.90
2017-11-20T04:00:46.790Z,17.80
2017-11-20T04:01:46.778Z,17.60
2017-11-20T04:02:46.755Z,17.60
2017-11-20T04:03:46.744Z,18.20
2017-11-20T04:04:46.722Z,17.90
2017-11-20T04:05:46.705Z,17.40
2017-11-20T04:06:46.691Z,18.40
2017-11-20T04:07:46.674Z,17.70
2017-11-20T04:08:46.653Z,20.10
2017-11-20T04:09:46.644Z,26.30
2017-11-20T04:10:46.624Z,21.70
2017-11-20T04:11:46.599Z,26.50
2017-11-20T04:12:46.587Z,20.70
2017-11-20T04:13:46.565Z,22.10
2017-11-20T04:14:46.545Z,21.80
2017-11-20T04:15:46.534Z,20.00
2017-11-20T04:16:46.522Z,18.20
2017-11-20T04:17:46.511Z,20.20
2017-11-20T04:18:46.485Z,18.40
2017-11-20T04:19:46.463Z,18.30
2017-11-20T04:20:46.448Z,20.00
2017-11-20T04:21:46.429Z,21.20
2017-11-20T04:22:46.414Z,20.20
2017-11-20T04:23:46.390Z,19.10
2017-11-20T04:24:46.380Z,19.40
2017-11-20T04:25:46.357Z,19.90
2017-11-20T04:26:46.356Z,20.40
2017-11-20T04:27:46.321Z,18.80
2017-11-20T04:28:46.311Z,20.20
2017-11-20T04:29:46.286Z,18.40
2017-11-20T04:30:46.273Z,18.40
2017-11-20T04:31:46.251Z,18.10
2017-11-20T04:32:46.234Z,19.30
2017-11-20T04:33:46.235Z,24.00
2017-11-20T04:34:46.199Z,20.80
2017-11-20T04:35:46.182Z,19.10
2017-11-20T04:36:46.162Z,19.70
2017-11-20T04:37:46.153Z,19.40
2017-11-20T04:38:46.136Z,19.00
2017-11-20T04:39:46.111Z,19.00
2017-11-20T04:40:46.094Z,20.20
2017-11-20T04:41:46.084Z,19.90
2017-11-20T04:42:46.061Z,19.70
2017-11-20T04:43:46.043Z,23.30
2017-11-20T04:44:46.024Z,22.50
2017-11-20T04:45:46.008Z,19.50
2017-11-20T04:46:46.004Z,19.00
2017-11-20T04:47:45.971Z,21.40
2017-11-20T04:48:45.960Z,21.10
2017-11-20T04:49:45.946Z,21.10
2017-11-20T04:50:45.922Z,34.00
2017-11-20T04:51:45.905Z,31.50
2017-11-20T04:52:45.900Z,23.00
2017-11-20T04:53:45.877Z,34.30
2017-11-20T04:54:45.851Z,24.20
2017-11-20T04:55:45.839Z,23.80
2017-11-20T04:56:45.825Z,23.10
2017-11-20T04:57:45.800Z,20.80
2017-11-20T04:58:45.782Z,21.30
2017-11-20T04:59:45.764Z,21.70
2017-11-20T05:00:45.761Z,20.20
2017-11-20T05:01:45.731Z,19.90
2017-11-20T05:02:45.724Z,20.30
2017-11-20T05:03:45.703Z,20.40
2017-11-20T05:04:45.686Z,20.80
2017-11-20T05:05:45.668Z,20.70
2017-11-20T05:06:45.651Z,19.60
2017-11-20T05:07:45.638Z,19.60
2017-11-20T05:08:45.612Z,19.20
2017-11-20T05:09:45.599Z,19.50
2017-11-20T05:10:45.577Z,21.40
2017-11-20T05:11:45.558Z,20.60
2017-11-20T05:12:45.550Z,20.80
2017-11-20T05:13:45.523Z,19.00
2017-11-20T05:14:45.505Z,19.70
2017-11-20T05:15:45.489Z,18.70
2017-11-20T05:16:45.473Z,19.20
2017-11-20T05:17:45.453Z,18.80
2017-11-20T05:18:45.442Z,20.40
2017-11-20T05:19:45.420Z,20.50
2017-11-20T05:20:45.404Z,19.10
2017-11-20T05:21:45.386Z,17.90
2017-11-20T05:22:45.373Z,17.80
2017-11-20T05:23:45.358Z,18.10
2017-11-20T05:24:45.335Z,17.40
2017-11-20T05:25:45.323Z,16.30
2017-11-20T05:26:45.315Z,18.30
2017-11-20T05:27:45.288Z,16.90
2017-11-20T05:28:45.267Z,17.30
2017-11-20T05:29:45.256Z,17.00
2017-11-20T05:30:45.234Z,17.20
2017-11-20T05:31:45.224Z,16.40
2017-11-20T05:32:45.210Z,17.10
2017-11-20T05:33:45.185Z,16.30
2017-11-20T05:34:45.162Z,15.90
2017-11-20T05:35:45.146Z,14.70
2017-11-20T05:36:45.130Z,14.80
2017-11-20T05:37:45.111Z,14.20
2017-11-20T05:38:45.093Z,14.30
2017-11-20T05:39:45.080Z,15.10
2017-11-20T05:40:45.068Z,15.30
2017-11-20T05:41:45.041Z,15.80
2017-11-20T05:42:45.034Z,15.60
2017-11-20T05:43:45.010Z,15.70
2017-11-20T05:44:45.001Z,16.30
2017-11-20T05:45:44.982Z,15.70
2017-11-20T05:46:44.958Z,15.50
2017-11-20T05:47:44.953Z,15.50
2017-11-20T05:48:44.922Z,15.90
2017-11-20T05:49:44.913Z,15.40
2017-11-20T05:50:44.895Z,16.10
2017-11-20T05:51:44.885Z,15.60
2017-11-20T05:52:44.856Z,17.40
2017-11-20T05:53:44.837Z,17.70
2017-11-20T05:54:44.825Z,17.40
2017-11-20T05:55:44.810Z,16.60
2017-11-20T05:56:44.791Z,16.20
2017-11-20T05:57:44.774Z,16.20
2017-11-20T05:58:44.756Z,17.50
2017-11-20T05:59:44.758Z,17.90
2017-11-20T06:00:44.715Z,17.80
2017-11-20T06:01:44.707Z,18.10
2017-11-20T06:02:44.681Z,18.00
2017-11-20T06:03:44.677Z,17.40
2017-11-20T06:04:44.658Z,18.50
2017-11-20T06:05:44.629Z,17.30
2017-11-20T06:06:44.621Z,17.80
2017-11-20T06:07:44.608Z,17.90
2017-11-20T06:08:44.594Z,18.20
2017-11-20T06:09:44.581Z,19.30
2017-11-20T06:10:44.579Z,18.30
2017-11-20T06:11:44.539Z,17.90
2017-11-20T06:12:44.528Z,18.40
2017-11-20T06:13:44.496Z,18.00
2017-11-20T06:14:44.481Z,17.10
2017-11-20T06:15:44.470Z,17.60
2017-11-20T06:16:44.449Z,17.70
2017-11-20T06:17:44.424Z,18.60
2017-11-20T06:18:44.409Z,17.70
2017-11-20T06:19:44.398Z,17.70
2017-11-20T06:20:44.384Z,17.10
2017-11-20T06:21:44.356Z,17.50
2017-11-20T06:22:44.347Z,17.50
2017-11-20T06:23:44.336Z,17.10
2017-11-20T06:24:44.312Z,17.40
2017-11-20T06:25:44.288Z,17.50
2017-11-20T06:26:44.297Z,17.80
2017-11-20T06:27:44.253Z,18.70
2017-11-20T06:28:44.236Z,18.40
2017-11-20T06:29:44.217Z,18.20
2017-11-20T06:30:44.205Z,16.70
2017-11-20T06:31:44.183Z,17.40
2017-11-20T06:32:44.166Z,17.50
2017-11-20T06:33:44.166Z,17.80
2017-11-20T06:34:44.137Z,17.70
2017-11-20T06:35:44.113Z,17.70
2017-11-20T06:36:44.097Z,18.30
2017-11-20T06:37:44.080Z,17.60
2017-11-20T06:38:44.060Z,17.30
2017-11-20T06:39:44.055Z,17.50
2017-11-20T06:40:44.026Z,17.70
2017-11-20T06:41:44.016Z,17.40
2017-11-20T06:42:43.998Z,17.60
2017-11-20T06:43:43.976Z,18.40
2017-11-20T06:44:43.959Z,17.80
2017-11-20T06:45:43.944Z,18.10
2017-11-20T06:46:43.933Z,18.00
2017-11-20T06:47:43.905Z,18.80
2017-11-20T06:48:43.889Z,18.10
2017-11-20T06:49:43.876Z,18.60
2017-11-20T06:50:43.853Z,17.10
2017-11-20T06:51:43.840Z,17.40
2017-11-20T06:52:43.829Z,18.10
2017-11-20T06:53:43.809Z,17.40
2017-11-20T06:54:43.789Z,17.60
2017-11-20T06:55:43.769Z,17.90
2017-11-20T06:56:43.749Z,17.60
2017-11-20T06:57:43.743Z,19.20
2017-11-20T06:58:43.713Z,18.90
2017-11-20T06:59:43.709Z,19.70
2017-11-20T07:00:43.689Z,20.20
2017-11-20T07:01:43.667Z,20.30
2017-11-20T07:02:43.652Z,18.90
2017-11-20T07:03:43.631Z,18.80
2017-11-20T07:04:43.608Z,19.90
2017-11-20T07:05:43.601Z,18.60
2017-11-20T07:06:43.576Z,17.10
2017-11-20T07:07:43.560Z,17.50
2017-11-20T07:08:43.545Z,18.20
2017-11-20T07:09:43.524Z,17.80
2017-11-20T07:10:43.509Z,17.60
2017-11-20T07:11:43.491Z,18.30
2017-11-20T07:12:43.480Z,18.90
2017-11-20T07:13:43.461Z,26.70
2017-11-20T07:14:43.440Z,18.30
2017-11-20T07:15:43.437Z,17.20
2017-11-20T07:16:43.411Z,17.00
2017-11-20T07:17:43.399Z,16.30
2017-11-20T07:18:43.374Z,18.00
2017-11-20T07:19:43.360Z,15.40
2017-11-20T07:20:43.344Z,16.60
2017-11-20T07:21:43.318Z,16.30
2017-11-20T07:22:43.315Z,16.90
2017-11-20T07:23:43.293Z,16.90
2017-11-20T07:24:43.275Z,17.00
2017-11-20T07:25:43.250Z,16.00
2017-11-20T07:26:43.240Z,16.60
2017-11-20T07:27:43.224Z,16.30
2017-11-20T07:28:43.207Z,16.70
2017-11-20T07:29:43.181Z,17.10
2017-11-20T07:30:43.170Z,16.70
2017-11-20T07:31:43.157Z,15.90
2017-11-20T07:32:43.138Z,16.40
2017-11-20T07:33:43.112Z,17.70
2017-11-20T07:34:43.095Z,17.00
2017-11-20T07:35:43.078Z,16.60
2017-11-20T07:36:43.061Z,16.90
2017-11-20T07:37:43.044Z,17.60
2017-11-20T07:38:43.027Z,17.10
2017-11-20T07:39:43.016Z,17.40
2017-11-20T07:40:42.998Z,17.40
2017-11-20T07:41:42.990Z,17.70
2017-11-20T07:42:42.970Z,17.50
2017-11-20T07:43:42.943Z,17.50
2017-11-20T07:44:42.931Z,18.70
2017-11-20T07:45:42.918Z,18.70
2017-11-20T07:46:42.891Z,18.40
2017-11-20T07:47:42.877Z,17.70
2017-11-20T07:48:42.866Z,17.40
2017-11-20T07:49:42.849Z,18.20
2017-11-20T07:50:42.824Z,17.20
2017-11-20T07:51:42.814Z,19.20
2017-11-20T07:52:42.792Z,20.10
2017-11-20T07:53:42.775Z,20.70
2017-11-20T07:54:42.756Z,20.00
2017-11-20T07:55:42.752Z,19.90
2017-11-20T07:56:42.737Z,19.70
2017-11-20T07:57:42.706Z,17.90
2017-11-20T07:58:42.688Z,18.00
2017-11-20T07:59:42.677Z,15.10
2017-11-20T08:00:42.672Z,15.30
2017-11-20T08:01:42.672Z,17.70
2017-11-20T08:02:42.623Z,16.70
2017-11-20T08:03:42.615Z,14.90
2017-11-20T08:04:42.587Z,16.00
2017-11-20T08:05:42.577Z,14.90
2017-11-20T08:06:42.555Z,14.80
2017-11-20T08:07:42.536Z,15.40
2017-11-20T08:08:42.525Z,14.30
2017-11-20T08:09:42.507Z,13.90
2017-11-20T08:10:42.485Z,14.50
2017-11-20T08:11:42.476Z,13.50
2017-11-20T08:12:42.464Z,12.90
2017-11-20T08:13:42.437Z,13.10
2017-11-20T08:14:42.419Z,12.70
2017-11-20T08:15:42.401Z,12.60
2017-11-20T08:16:42.385Z,11.80
2017-11-20T08:17:42.386Z,12.80
2017-11-20T08:18:42.354Z,12.10
2017-11-20T08:19:42.346Z,11.90
2017-11-20T08:20:42.320Z,12.00
2017-11-20T08:21:42.310Z,12.60
2017-11-20T08:22:42.296Z,11.40
2017-11-20T08:23:42.278Z,11.40
2017-11-20T08:24:42.260Z,12.30
2017-11-20T08:25:42.238Z,11.80
2017-11-20T08:26:42.221Z,12.20
2017-11-20T08:27:42.209Z,12.40
2017-11-20T08:28:42.191Z,12.60
2017-11-20T08:29:42.174Z,12.80
2017-11-20T08:30:42.159Z,13.30
2017-11-20T08:31:42.143Z,13.00
2017-11-20T08:32:42.122Z,13.50
2017-11-20T08:33:42.104Z,13.40
2017-11-20T08:34:42.095Z,13.00
2017-11-20T08:35:42.091Z,12.50
2017-11-20T08:36:42.055Z,12.30
2017-11-20T08:37:42.044Z,11.80
2017-11-20T08:38:42.029Z,13.10
2017-11-20T08:39:42.016Z,13.10
2017-11-20T08:40:41.991Z,12.50
2017-11-20T08:41:41.974Z,12.40
2017-11-20T08:42:41.963Z,13.60
2017-11-20T08:43:41.942Z,13.00
2017-11-20T08:44:41.927Z,11.20
2017-11-20T08:45:41.909Z,11.60
2017-11-20T08:46:41.904Z,11.60
2017-11-20T08:47:41.877Z,11.00
2017-11-20T08:48:41.866Z,11.70
2017-11-20T08:49:41.844Z,11.60
2017-11-20T08:50:41.829Z,11.10
2017-11-20T08:51:41.820Z,11.10
2017-11-20T08:52:41.805Z,11.60
2017-11-20T08:53:41.781Z,12.30
2017-11-20T08:54:41.765Z,12.00
2017-11-20T08:55:41.758Z,11.70
2017-11-20T08:56:41.734Z,11.30
2017-11-20T08:57:41.716Z,12.50
2017-11-20T08:58:41.699Z,12.30
2017-11-20T08:59:41.682Z,11.80
2017-11-20T09:00:41.666Z,11.20
2017-11-20T09:01:41.658Z,12.00
2017-11-20T09:02:41.634Z,11.60
2017-11-20T09:03:41.616Z,11.30
2017-11-20T09:04:41.607Z,11.80
2017-11-20T09:05:41.585Z,11.80
2017-11-20T09:06:41.573Z,11.50
2017-11-20T09:07:41.558Z,12.00
2017-11-20T09:08:41.536Z,11.40
2017-11-20T09:09:41.521Z,11.40
2017-11-20T09:10:41.504Z,12.10
2017-11-20T09:11:41.497Z,11.90
2017-11-20T09:12:41.471Z,11.50
2017-11-20T09:13:41.461Z,11.40
2017-11-20T09:14:41.444Z,12.00
2017-11-20T09:15:41.423Z,11.30
2017-11-20T09:16:41.406Z,11.90
2017-11-20T09:17:41.389Z,11.20
2017-11-20T09:18:41.384Z,11.10
2017-11-20T09:19:41.358Z,11.40
2017-11-20T09:20:41.341Z,11.60
2017-11-20T09:21:41.330Z,11.80
2017-11-20T09:22:41.309Z,11.80
2017-11-20T09:23:41.292Z,11.10
2017-11-20T09:24:41.278Z,11.90
2017-11-20T09:25:41.263Z,11.30
2017-11-20T09:26:41.262Z,11.50
2017-11-20T09:27:41.241Z,11.10
2017-11-20T09:28:41.220Z,11.40
2017-11-20T09:29:41.195Z,10.70
2017-11-20T09:30:41.180Z,11.30
2017-11-20T09:31:41.164Z,11.00
2017-11-20T09:32:41.148Z,11.40
2017-11-20T09:33:41.133Z,12.30
2017-11-20T09:34:41.116Z,10.50
2017-11-20T09:35:41.115Z,11.00
2017-11-20T09:36:41.085Z,12.00
2017-11-20T09:37:41.068Z,11.60
2017-11-20T09:38:41.058Z,12.60
2017-11-20T09:39:41.043Z,12.30
2017-11-20T09:40:41.030Z,11.50
2017-11-20T09:41:41.019Z,12.10
2017-11-20T09:42:40.989Z,11.50
2017-11-20T09:43:40.986Z,11.20
2017-11-20T09:44:40.958Z,12.00
2017-11-20T09:45:40.950Z,11.80
2017-11-20T09:46:40.927Z,11.20
2017-11-20T09:47:40.908Z,10.90
2017-11-20T09:48:40.901Z,11.50
2017-11-20T09:49:40.889Z,13.00
2017-11-20T09:50:40.872Z,12.20
2017-11-20T09:51:40.845Z,11.20
2017-11-20T09:52:40.831Z,12.40
2017-11-20T09:53:40.827Z,11.80
2017-11-20T09:54:40.797Z,12.70
2017-11-20T09:55:40.782Z,12.10
2017-11-20T09:56:40.769Z,11.60
2017-11-20T09:57:40.758Z,11.90
2017-11-20T09:58:40.740Z,12.20
2017-11-20T09:59:40.726Z,12.20
2017-11-20T10:00:40.704Z,12.00
2017-11-20T10:01:40.695Z,11.30
2017-11-20T10:02:40.679Z,11.60
2017-11-20T10:03:40.656Z,11.30
2017-11-20T10:04:40.642Z,11.90
2017-11-20T10:05:40.642Z,11.90
2017-11-20T10:06:40.623Z,11.70
2017-11-20T10:07:40.596Z,11.80
2017-11-20T10:08:40.583Z,11.10
2017-11-20T10:09:40.562Z,12.30
2017-11-20T10:10:40.561Z,11.60
2017-11-20T10:11:40.546Z,11.50
2017-11-20T10:12:40.515Z,11.10
2017-11-20T10:13:40.501Z,11.20
2017-11-20T10:14:40.485Z,10.60
2017-11-20T10:15:40.481Z,11.60
2017-11-20T10:16:40.468Z,11.30
2017-11-20T10:17:40.443Z,11.50
2017-11-20T10:18:40.425Z,11.10
2017-11-20T10:19:40.417Z,11.50
2017-11-20T10:20:40.412Z,11.50
2017-11-20T10:21:40.378Z,11.30
2017-11-20T10:22:40.361Z,11.50
2017-11-20T10:23:40.346Z,11.70
2017-11-20T10:24:40.346Z,10.90
2017-11-20T10:25:40.316Z,11.20
2017-11-20T10:26:40.302Z,12.00
2017-11-20T10:27:40.285Z,11.20
2017-11-20T10:28:40.275Z,11.70
2017-11-20T10:29:40.255Z,10.60
2017-11-20T10:30:40.242Z,10.90
2017-11-20T10:31:40.230Z,11.50
2017-11-20T10:32:40.212Z,10.60
2017-11-20T10:33:40.202Z,11.20
2017-11-20T10:34:40.189Z,11.20
2017-11-20T10:35:40.171Z,11.30
2017-11-20T10:36:40.148Z,10.50
2017-11-20T10:37:40.143Z,10.60
2017-11-20T10:38:40.120Z,10.50
2017-11-20T10:39:40.103Z,10.80
2017-11-20T10:40:40.092Z,10.10
2017-11-20T10:41:40.072Z,10.90
2017-11-20T10:42:40.069Z,11.50
2017-11-20T10:43:40.044Z,10.70
2017-11-20T10:44:40.034Z,10.90
2017-11-20T10:45:40.019Z,11.20
2017-11-20T10:46:39.997Z,10.60
2017-11-20T10:47:39.986Z,10.70
2017-11-20T10:48:39.969Z,10.90
2017-11-20T10:49:39.961Z,11.60
2017-11-20T10:50:39.939Z,10.70
2017-11-20T10:51:39.928Z,10.90
2017-11-20T10:52:39.909Z,10.50
2017-11-20T10:53:39.893Z,10.60
2017-11-20T10:54:39.879Z,11.60
2017-11-20T10:55:39.868Z,10.90
2017-11-20T10:56:39.857Z,10.50
2017-11-20T10:57:39.835Z,10.80
2017-11-20T10:58:39.831Z,10.80
2017-11-20T10:59:39.808Z,10.20
2017-11-20T11:00:39.801Z,10.80
2017-11-20T11:01:39.780Z,11.40
2017-11-20T11:02:39.771Z,10.00
2017-11-20T11:03:39.752Z,11.30
2017-11-20T11:04:39.730Z,10.80
2017-11-20T11:05:39.722Z,11.80
2017-11-20T11:06:39.699Z,11.10
2017-11-20T11:07:39.692Z,10.80
2017-11-20T11:08:39.668Z,11.20
2017-11-20T11:09:39.651Z,11.00
2017-11-20T11:10:39.637Z,9.60
2017-11-20T11:11:39.635Z,10.90
2017-11-20T11:12:39.608Z,11.00
2017-11-20T11:13:39.596Z,10.00
2017-11-20T11:14:39.586Z,10.30
2017-11-20T11:15:39.567Z,10.90
2017-11-20T11:16:39.555Z,10.40
2017-11-20T11:17:39.538Z,10.40
2017-11-20T11:18:39.531Z,11.00
2017-11-20T11:19:39.502Z,10.00
2017-11-20T11:20:39.486Z,11.10
2017-11-20T11:21:39.482Z,10.80
2017-11-20T11:22:39.457Z,10.80
2017-11-20T11:23:39.441Z,11.10
2017-11-20T11:24:39.436Z,10.30
2017-11-20T11:25:39.416Z,10.30
2017-11-20T11:26:39.397Z,10.40
2017-11-20T11:27:39.382Z,10.80
2017-11-20T11:28:39.368Z,10.10
2017-11-20T11:29:39.352Z,10.70
2017-11-20T11:30:39.337Z,10.30
2017-11-20T11:31:39.326Z,10.40
2017-11-20T11:32:39.314Z,10.90
2017-11-20T11:33:39.293Z,10.60
2017-11-20T11:34:39.282Z,10.10
2017-11-20T11:35:39.262Z,11.50
2017-11-20T11:36:39.248Z,10.80
2017-11-20T11:37:39.231Z,10.60
2017-11-20T11:38:39.225Z,10.90
2017-11-20T11:39:39.208Z,10.60
2017-11-20T11:40:39.194Z,10.00
2017-11-20T11:41:39.173Z,11.30
2017-11-20T11:42:39.157Z,10.50
2017-11-20T11:43:39.144Z,10.50
2017-11-20T11:44:39.134Z,10.10
2017-11-20T11:45:39.121Z,10.50
2017-11-20T11:46:39.109Z,10.20
2017-11-20T11:47:39.089Z,10.20
2017-11-20T11:48:39.069Z,10.40
2017-11-20T11:49:39.059Z,11.10
2017-11-20T11:50:39.045Z,10.00
2017-11-20T11:51:39.024Z,10.00
2017-11-20T11:52:39.030Z,10.30
2017-11-20T11:53:38.997Z,9.90
2017-11-20T11:54:38.999Z,9.70
2017-11-20T11:55:38.967Z,10.30
2017-11-20T11:56:38.953Z,9.70
2017-11-20T11:57:38.940Z,10.00
2017-11-20T11:58:38.937Z,9.70
2017-11-20T11:59:38.907Z,10.40
2017-11-20T12:00:38.903Z,10.00
2017-11-20T12:01:38.877Z,10.20
2017-11-20T12:02:38.871Z,10.60
2017-11-20T12:03:38.855Z,9.70
2017-11-20T12:04:38.834Z,9.90
2017-11-20T12:05:38.820Z,10.00
2017-11-20T12:06:38.818Z,9.30
2017-11-20T12:07:38.793Z,10.20
2017-11-20T12:08:38.776Z,10.10
2017-11-20T12:09:38.768Z,10.60
2017-11-20T12:10:38.749Z,10.00
2017-11-20T12:11:38.738Z,9.30
2017-11-20T12:12:38.720Z,9.50
2017-11-20T12:13:38.709Z,9.80
2017-11-20T12:14:38.697Z,10.00
2017-11-20T12:15:38.687Z,9.80
2017-11-20T12:16:38.669Z,10.10
2017-11-20T12:17:38.657Z,10.30
2017-11-20T12:18:38.631Z,10.40
2017-11-20T12:19:38.618Z,9.80
2017-11-20T12:20:38.611Z,10.10
2017-11-20T12:21:38.587Z,9.50
2017-11-20T12:22:38.577Z,9.60
2017-11-20T12:23:38.564Z,9.50
2017-11-20T12:24:38.556Z,9.50
2017-11-20T12:25:38.541Z,10.00
2017-11-20T12:26:38.519Z,9.00
2017-11-20T12:27:38.503Z,8.70
2017-11-20T12:28:38.498Z,9.30
2017-11-20T12:29:38.476Z,8.60
2017-11-20T12:30:38.475Z,9.20
2017-11-20T12:31:38.455Z,8.80
2017-11-20T12:32:38.440Z,9.30
2017-11-20T12:33:38.418Z,8.60
2017-11-20T12:34:38.403Z,8.90
2017-11-20T12:35:38.389Z,8.90
2017-11-20T12:36:38.383Z,8.80
2017-11-20T12:37:38.360Z,8.70
2017-11-20T12:38:38.356Z,8.60
2017-11-20T12:39:38.333Z,8.90
2017-11-20T12:40:38.328Z,8.70
2017-11-20T12:41:38.303Z,8.30
2017-11-20T12:42:38.290Z,8.70
2017-11-20T12:43:38.275Z,8.70
2017-11-20T12:44:38.261Z,8.10
2017-11-20T12:45:38.262Z,8.90
2017-11-20T12:46:38.234Z,8.60
2017-11-20T12:47:38.225Z,8.70
2017-11-20T12:48:38.210Z,9.20
2017-11-20T12:49:38.192Z,9.20
2017-11-20T12:50:38.188Z,8.50
2017-11-20T12:51:38.173Z,8.20
2017-11-20T12:52:38.156Z,9.00
2017-11-20T12:53:38.138Z,9.20
2017-11-20T12:54:38.121Z,8.80